sensor_id;sensor_type;location;lat;lon;timestamp;P1;durP1;ratioP1;P2;durP2;ratioP2
32329;SDS011;18807;52.434;13.238;2023-04-25T00:05:46;5.07;;;1.77;;
32329;SDS011;18807;52.434;13.238;2023-04-25T00:13:22;8.57;;;2.60;;
32329;SDS011;18807;52.434;13.238;2023-04-25T00:20:57;2.70;;;1.65;;
32329;SDS011;18807;52.434;13.238;2023-04-25T00:28:33;4.93;;;1.93;;
32329;SDS011;18807;52.434;13.238;2023-04-25T00:36:07;7.30;;;2.95;;
32329;SDS011;18807;52.434;13.238;2023-04-25T00:51:19;8.40;;;2.38;;
32329;SDS011;18807;52.434;13.238;2023-04-25T00:58:56;4.53;;;2.85;;
32329;SDS011;18807;52.434;13.238;2023-04-25T01:06:30;6.13;;;2.10;;
32329;SDS011;18807;52.434;13.238;2023-04-25T01:21:41;3.38;;;2.30;;
32329;SDS011;18807;52.434;13.238;2023-04-25T01:29:15;4.05;;;1.90;;
32329;SDS011;18807;52.434;13.238;2023-04-25T01:36:51;10.20;;;2.53;;
32329;SDS011;18807;52.434;13.238;2023-04-25T01:44:25;5.35;;;2.90;;
32329;SDS011;18807;52.434;13.238;2023-04-25T01:52:00;4.95;;;2.50;;
32329;SDS011;18807;52.434;13.238;2023-04-25T01:59:34;5.95;;;3.13;;
32329;SDS011;18807;52.434;13.238;2023-04-25T02:07:09;5.30;;;3.20;;
32329;SDS011;18807;52.434;13.238;2023-04-25T02:14:43;7.32;;;3.35;;
32329;SDS011;18807;52.434;13.238;2023-04-25T02:22:18;9.27;;;3.38;;
32329;SDS011;18807;52.434;13.238;2023-04-25T02:29:53;6.93;;;3.05;;
32329;SDS011;18807;52.434;13.238;2023-04-25T02:37:45;6.05;;;3.58;;
32329;SDS011;18807;52.434;13.238;2023-04-25T02:45:19;7.85;;;3.90;;
32329;SDS011;18807;52.434;13.238;2023-04-25T02:52:55;7.47;;;3.20;;
32329;SDS011;18807;52.434;13.238;2023-04-25T03:00:29;7.43;;;3.42;;
32329;SDS011;18807;52.434;13.238;2023-04-25T03:08:04;8.27;;;4.63;;
32329;SDS011;18807;52.434;13.238;2023-04-25T03:15:38;7.82;;;3.92;;
32329;SDS011;18807;52.434;13.238;2023-04-25T03:23:14;8.63;;;3.83;;
32329;SDS011;18807;52.434;13.238;2023-04-25T03:30:48;3.75;;;3.15;;
32329;SDS011;18807;52.434;13.238;2023-04-25T03:38:23;8.87;;;3.83;;
32329;SDS011;18807;52.434;13.238;2023-04-25T03:45:57;10.02;;;4.45;;
32329;SDS011;18807;52.434;13.238;2023-04-25T03:53:34;4.95;;;3.70;;
32329;SDS011;18807;52.434;13.238;2023-04-25T04:01:08;8.23;;;4.25;;
32329;SDS011;18807;52.434;13.238;2023-04-25T04:08:44;7.18;;;3.70;;
32329;SDS011;18807;52.434;13.238;2023-04-25T04:16:18;10.52;;;4.60;;
32329;SDS011;18807;52.434;13.238;2023-04-25T04:23:53;6.73;;;3.27;;
32329;SDS011;18807;52.434;13.238;2023-04-25T04:31:29;9.00;;;4.28;;
32329;SDS011;18807;52.434;13.238;2023-04-25T04:39:06;9.23;;;3.63;;
32329;SDS011;18807;52.434;13.238;2023-04-25T04:46:41;12.18;;;4.38;;
32329;SDS011;18807;52.434;13.238;2023-04-25T04:54:16;6.97;;;3.22;;
32329;SDS011;18807;52.434;13.238;2023-04-25T05:01:50;6.97;;;4.18;;
32329;SDS011;18807;52.434;13.238;2023-04-25T05:09:27;12.05;;;5.10;;
32329;SDS011;18807;52.434;13.238;2023-04-25T05:17:01;7.25;;;4.15;;
32329;SDS011;18807;52.434;13.238;2023-04-25T05:24:40;7.47;;;4.07;;
32329;SDS011;18807;52.434;13.238;2023-04-25T05:32:14;7.80;;;3.97;;
32329;SDS011;18807;52.434;13.238;2023-04-25T05:39:49;8.57;;;4.17;;
32329;SDS011;18807;52.434;13.238;2023-04-25T05:47:23;10.40;;;6.38;;
32329;SDS011;18807;52.434;13.238;2023-04-25T05:54:59;9.07;;;4.95;;
32329;SDS011;18807;52.434;13.238;2023-04-25T06:02:33;10.80;;;5.45;;
32329;SDS011;18807;52.434;13.238;2023-04-25T06:10:09;7.27;;;3.87;;
32329;SDS011;18807;52.434;13.238;2023-04-25T06:17:42;10.02;;;5.15;;
32329;SDS011;18807;52.434;13.238;2023-04-25T06:25:18;15.65;;;5.38;;
32329;SDS011;18807;52.434;13.238;2023-04-25T06:32:52;11.68;;;4.65;;
32329;SDS011;18807;52.434;13.238;2023-04-25T06:40:28;10.07;;;5.17;;
32329;SDS011;18807;52.434;13.238;2023-04-25T06:48:01;9.30;;;4.50;;
32329;SDS011;18807;52.434;13.238;2023-04-25T06:55:37;7.88;;;4.30;;
32329;SDS011;18807;52.434;13.238;2023-04-25T07:03:11;8.10;;;4.35;;
32329;SDS011;18807;52.434;13.238;2023-04-25T07:10:47;8.97;;;3.67;;
32329;SDS011;18807;52.434;13.238;2023-04-25T07:18:21;11.88;;;3.60;;
32329;SDS011;18807;52.434;13.238;2023-04-25T07:25:56;11.27;;;3.67;;
32329;SDS011;18807;52.434;13.238;2023-04-25T07:33:30;9.38;;;3.75;;
32329;SDS011;18807;52.434;13.238;2023-04-25T07:41:05;8.43;;;3.87;;
32329;SDS011;18807;52.434;13.238;2023-04-25T07:48:39;11.50;;;4.32;;
32329;SDS011;18807;52.434;13.238;2023-04-25T07:56:14;12.65;;;4.03;;
32329;SDS011;18807;52.434;13.238;2023-04-25T08:03:48;15.65;;;3.58;;
32329;SDS011;18807;52.434;13.238;2023-04-25T08:11:24;10.73;;;4.80;;
32329;SDS011;18807;52.434;13.238;2023-04-25T08:18:59;23.90;;;3.83;;
32329;SDS011;18807;52.434;13.238;2023-04-25T08:26:34;12.83;;;2.97;;
32329;SDS011;18807;52.434;13.238;2023-04-25T08:34:09;11.95;;;3.50;;
32329;SDS011;18807;52.434;13.238;2023-04-25T08:41:44;13.50;;;2.97;;
32329;SDS011;18807;52.434;13.238;2023-04-25T08:49:18;13.45;;;2.80;;
32329;SDS011;18807;52.434;13.238;2023-04-25T08:56:54;12.70;;;2.70;;
32329;SDS011;18807;52.434;13.238;2023-04-25T09:04:29;12.05;;;3.25;;
32329;SDS011;18807;52.434;13.238;2023-04-25T09:12:05;14.77;;;3.63;;
32329;SDS011;18807;52.434;13.238;2023-04-25T09:19:39;10.48;;;2.80;;
32329;SDS011;18807;52.434;13.238;2023-04-25T09:27:17;7.67;;;2.47;;
32329;SDS011;18807;52.434;13.238;2023-04-25T09:34:53;11.70;;;3.40;;
32329;SDS011;18807;52.434;13.238;2023-04-25T09:42:29;9.50;;;2.70;;
32329;SDS011;18807;52.434;13.238;2023-04-25T09:50:05;14.07;;;2.53;;
32329;SDS011;18807;52.434;13.238;2023-04-25T09:57:49;10.32;;;2.63;;
32329;SDS011;18807;52.434;13.238;2023-04-25T10:05:26;8.57;;;2.67;;
32329;SDS011;18807;52.434;13.238;2023-04-25T10:13:05;9.50;;;2.20;;
32329;SDS011;18807;52.434;13.238;2023-04-25T10:20:40;9.35;;;2.60;;
32329;SDS011;18807;52.434;13.238;2023-04-25T10:28:15;7.45;;;1.90;;
32329;SDS011;18807;52.434;13.238;2023-04-25T10:35:49;4.47;;;2.22;;
32329;SDS011;18807;52.434;13.238;2023-04-25T10:43:38;5.03;;;1.80;;
32329;SDS011;18807;52.434;13.238;2023-04-25T10:51:16;11.15;;;2.53;;
32329;SDS011;18807;52.434;13.238;2023-04-25T10:58:52;6.55;;;1.77;;
32329;SDS011;18807;52.434;13.238;2023-04-25T11:06:42;8.98;;;1.88;;
32329;SDS011;18807;52.434;13.238;2023-04-25T11:14:39;5.50;;;2.20;;
32329;SDS011;18807;52.434;13.238;2023-04-25T11:22:13;9.30;;;2.05;;
32329;SDS011;18807;52.434;13.238;2023-04-25T11:29:49;11.83;;;1.67;;
32329;SDS011;18807;52.434;13.238;2023-04-25T11:37:22;8.70;;;1.90;;
32329;SDS011;18807;52.434;13.238;2023-04-25T11:44:58;7.53;;;1.60;;
32329;SDS011;18807;52.434;13.238;2023-04-25T11:52:36;4.55;;;1.40;;
32329;SDS011;18807;52.434;13.238;2023-04-25T12:00:14;6.25;;;1.55;;
32329;SDS011;18807;52.434;13.238;2023-04-25T12:07:50;8.40;;;2.03;;
32329;SDS011;18807;52.434;13.238;2023-04-25T12:15:25;5.20;;;1.27;;
32329;SDS011;18807;52.434;13.238;2023-04-25T12:23:00;5.65;;;1.27;;
32329;SDS011;18807;52.434;13.238;2023-04-25T12:30:57;7.50;;;1.80;;
32329;SDS011;18807;52.434;13.238;2023-04-25T12:38:35;9.20;;;2.40;;
32329;SDS011;18807;52.434;13.238;2023-04-25T12:46:11;7.18;;;1.80;;
32329;SDS011;18807;52.434;13.238;2023-04-25T12:53:45;4.47;;;1.77;;
32329;SDS011;18807;52.434;13.238;2023-04-25T13:01:20;5.50;;;1.60;;
32329;SDS011;18807;52.434;13.238;2023-04-25T13:08:55;10.23;;;1.80;;
32329;SDS011;18807;52.434;13.238;2023-04-25T13:16:30;12.37;;;1.87;;
32329;SDS011;18807;52.434;13.238;2023-04-25T13:24:05;5.70;;;1.73;;
32329;SDS011;18807;52.434;13.238;2023-04-25T13:31:41;7.30;;;1.60;;
32329;SDS011;18807;52.434;13.238;2023-04-25T13:39:15;3.78;;;1.40;;
32329;SDS011;18807;52.434;13.238;2023-04-25T13:46:50;4.32;;;1.50;;
32329;SDS011;18807;52.434;13.238;2023-04-25T13:54:24;4.80;;;1.50;;
32329;SDS011;18807;52.434;13.238;2023-04-25T14:01:59;2.65;;;1.40;;
32329;SDS011;18807;52.434;13.238;2023-04-25T14:09:33;6.22;;;1.45;;
32329;SDS011;18807;52.434;13.238;2023-04-25T14:17:09;6.37;;;2.10;;
32329;SDS011;18807;52.434;13.238;2023-04-25T14:24:44;3.35;;;1.52;;
32329;SDS011;18807;52.434;13.238;2023-04-25T14:32:19;5.85;;;1.60;;
32329;SDS011;18807;52.434;13.238;2023-04-25T14:39:53;6.68;;;3.15;;
32329;SDS011;18807;52.434;13.238;2023-04-25T14:47:28;5.72;;;1.80;;
32329;SDS011;18807;52.434;13.238;2023-04-25T14:55:03;3.75;;;2.17;;
32329;SDS011;18807;52.434;13.238;2023-04-25T15:02:39;2.90;;;1.65;;
32329;SDS011;18807;52.434;13.238;2023-04-25T15:10:13;3.70;;;1.38;;
32329;SDS011;18807;52.434;13.238;2023-04-25T15:17:49;3.95;;;1.38;;
32329;SDS011;18807;52.434;13.238;2023-04-25T15:25:24;4.88;;;1.23;;
32329;SDS011;18807;52.434;13.238;2023-04-25T15:32:59;3.50;;;1.17;;
32329;SDS011;18807;52.434;13.238;2023-04-25T15:40:33;5.20;;;1.30;;
32329;SDS011;18807;52.434;13.238;2023-04-25T15:48:09;3.65;;;1.00;;
32329;SDS011;18807;52.434;13.238;2023-04-25T15:55:43;2.50;;;0.80;;
32329;SDS011;18807;52.434;13.238;2023-04-25T16:03:20;1.63;;;0.82;;
32329;SDS011;18807;52.434;13.238;2023-04-25T16:10:55;6.38;;;1.48;;
32329;SDS011;18807;52.434;13.238;2023-04-25T16:26:21;3.75;;;1.08;;
32329;SDS011;18807;52.434;13.238;2023-04-25T16:33:56;4.32;;;0.90;;
32329;SDS011;18807;52.434;13.238;2023-04-25T16:41:30;1.52;;;0.70;;
32329;SDS011;18807;52.434;13.238;2023-04-25T16:49:06;2.13;;;0.80;;
32329;SDS011;18807;52.434;13.238;2023-04-25T16:56:40;3.00;;;1.15;;
32329;SDS011;18807;52.434;13.238;2023-04-25T17:04:16;3.97;;;0.73;;
32329;SDS011;18807;52.434;13.238;2023-04-25T17:11:50;2.75;;;0.80;;
32329;SDS011;18807;52.434;13.238;2023-04-25T17:19:26;3.23;;;0.60;;
32329;SDS011;18807;52.434;13.238;2023-04-25T17:27:03;2.75;;;0.98;;
32329;SDS011;18807;52.434;13.238;2023-04-25T17:34:41;4.55;;;0.93;;
32329;SDS011;18807;52.434;13.238;2023-04-25T17:42:17;2.72;;;0.70;;
32329;SDS011;18807;52.434;13.238;2023-04-25T17:49:52;5.18;;;0.90;;
32329;SDS011;18807;52.434;13.238;2023-04-25T17:57:27;2.20;;;0.70;;
32329;SDS011;18807;52.434;13.238;2023-04-25T18:05:03;4.75;;;1.10;;
32329;SDS011;18807;52.434;13.238;2023-04-25T18:12:41;4.70;;;0.93;;
32329;SDS011;18807;52.434;13.238;2023-04-25T18:20:16;5.67;;;0.90;;
32329;SDS011;18807;52.434;13.238;2023-04-25T18:27:50;3.70;;;1.30;;
32329;SDS011;18807;52.434;13.238;2023-04-25T18:35:25;1.52;;;0.90;;
32329;SDS011;18807;52.434;13.238;2023-04-25T18:43:00;4.68;;;1.05;;
32329;SDS011;18807;52.434;13.238;2023-04-25T18:50:35;3.53;;;1.00;;
32329;SDS011;18807;52.434;13.238;2023-04-25T18:58:10;5.05;;;0.75;;
32329;SDS011;18807;52.434;13.238;2023-04-25T19:05:46;5.88;;;0.95;;
32329;SDS011;18807;52.434;13.238;2023-04-25T19:13:19;1.88;;;0.95;;
32329;SDS011;18807;52.434;13.238;2023-04-25T19:20:55;6.30;;;1.20;;
32329;SDS011;18807;52.434;13.238;2023-04-25T19:28:29;3.78;;;1.10;;
32329;SDS011;18807;52.434;13.238;2023-04-25T19:36:21;2.88;;;0.90;;
32329;SDS011;18807;52.434;13.238;2023-04-25T19:43:57;1.92;;;1.00;;
32329;SDS011;18807;52.434;13.238;2023-04-25T19:51:33;3.20;;;1.00;;
32329;SDS011;18807;52.434;13.238;2023-04-25T19:59:08;3.38;;;1.10;;
32329;SDS011;18807;52.434;13.238;2023-04-25T20:06:44;2.22;;;0.75;;
32329;SDS011;18807;52.434;13.238;2023-04-25T20:14:17;1.05;;;0.60;;
32329;SDS011;18807;52.434;13.238;2023-04-25T20:21:54;2.30;;;0.90;;
32329;SDS011;18807;52.434;13.238;2023-04-25T20:29:28;1.83;;;0.73;;
32329;SDS011;18807;52.434;13.238;2023-04-25T20:37:04;3.60;;;0.95;;
32329;SDS011;18807;52.434;13.238;2023-04-25T20:44:40;3.75;;;1.02;;
32329;SDS011;18807;52.434;13.238;2023-04-25T20:52:16;3.08;;;1.00;;
32329;SDS011;18807;52.434;13.238;2023-04-25T20:59:50;3.80;;;0.88;;
32329;SDS011;18807;52.434;13.238;2023-04-25T21:07:25;6.13;;;1.33;;
32329;SDS011;18807;52.434;13.238;2023-04-25T21:15:00;1.50;;;0.90;;
32329;SDS011;18807;52.434;13.238;2023-04-25T21:22:35;4.00;;;1.20;;
32329;SDS011;18807;52.434;13.238;2023-04-25T21:30:09;3.42;;;1.02;;
32329;SDS011;18807;52.434;13.238;2023-04-25T21:37:45;3.25;;;1.45;;
32329;SDS011;18807;52.434;13.238;2023-04-25T21:45:19;6.13;;;1.40;;
32329;SDS011;18807;52.434;13.238;2023-04-25T21:52:55;9.00;;;2.17;;
32329;SDS011;18807;52.434;13.238;2023-04-25T22:00:30;4.85;;;1.42;;
32329;SDS011;18807;52.434;13.238;2023-04-25T22:08:07;3.30;;;1.23;;
32329;SDS011;18807;52.434;13.238;2023-04-25T22:15:41;4.95;;;0.90;;
32329;SDS011;18807;52.434;13.238;2023-04-25T22:23:17;5.47;;;1.00;;
32329;SDS011;18807;52.434;13.238;2023-04-25T22:30:51;3.67;;;1.13;;
32329;SDS011;18807;52.434;13.238;2023-04-25T22:38:26;4.05;;;0.90;;
32329;SDS011;18807;52.434;13.238;2023-04-25T22:46:00;4.63;;;1.10;;
32329;SDS011;18807;52.434;13.238;2023-04-25T22:53:36;5.05;;;1.40;;
32329;SDS011;18807;52.434;13.238;2023-04-25T23:01:11;4.43;;;1.02;;
32329;SDS011;18807;52.434;13.238;2023-04-25T23:08:46;5.97;;;1.03;;
32329;SDS011;18807;52.434;13.238;2023-04-25T23:16:21;3.35;;;1.35;;
32329;SDS011;18807;52.434;13.238;2023-04-25T23:23:56;2.43;;;1.13;;
32329;SDS011;18807;52.434;13.238;2023-04-25T23:31:31;2.75;;;1.13;;
32329;SDS011;18807;52.434;13.238;2023-04-25T23:39:06;4.47;;;0.97;;
32329;SDS011;18807;52.434;13.238;2023-04-25T23:46:41;6.53;;;1.27;;
32329;SDS011;18807;52.434;13.238;2023-04-25T23:54:16;4.23;;;1.30;;
